Observations for WELLINGTON INTL, New Zealand (NZWN)

NZWN 221430Z AUTO 01012KT 9999 NCD 13/11 Q1024 NOSIG
NZWN 221400Z AUTO 01012KT 9999 NCD 13/11 Q1025 NOSIG
NZWN 221330Z AUTO 01014KT 9999 NCD 13/10 Q1025 NOSIG
NZWN 221300Z AUTO 01014KT 9999 NCD 13/10 Q1025 NOSIG
NZWN 221230Z AUTO 01016KT 9999 NCD 13/11 Q1025 NOSIG
NZWN 221200Z AUTO 36014KT 9999 NCD 13/11 Q1025 NOSIG
NZWN 221130Z AUTO 01011KT 9999 NCD 13/11 Q1025 NOSIG
NZWN 221100Z AUTO 36012KT 9999 NCD 14/11 Q1025 NOSIG
NZWN 221030Z AUTO 01013KT 9999 NCD 14/11 Q1025 NOSIG
NZWN 221000Z AUTO 01012KT 9999 NCD 14/10 Q1025 NOSIG
NZWN 220930Z AUTO 01013KT 9999 NCD 14/10 Q1025 NOSIG
NZWN 220900Z AUTO 01013KT 9999 NCD 15/10 Q1025 NOSIG
NZWN 220830Z AUTO 01010KT 9999 NCD 15/10 Q1025 NOSIG
NZWN 220800Z AUTO 01011KT 9999 NCD 15/10 Q1025 NOSIG
NZWN 220730Z AUTO 02011KT 9999 NCD 15/10 Q1025 NOSIG
NZWN 220700Z AUTO 01010KT 9999 NCD 15/11 Q1025 NOSIG
NZWN 220630Z AUTO 36011KT 9999 NCD 16/11 Q1024 NOSIG
NZWN 220600Z AUTO 35010KT 9999 NCD 17/11 Q1024 NOSIG
NZWN 220530Z AUTO 35010KT 9999 NCD 18/10 Q1024 NOSIG
NZWN 220500Z AUTO 36011KT 9999 NCD 18/11 Q1024 NOSIG
NZWN 220430Z AUTO 36011KT 9999 NCD 19/11 Q1024 NOSIG
NZWN 220400Z AUTO 36010KT 9999 NCD 19/11 Q1024 NOSIG
NZWN 220330Z AUTO 01011KT 9999 NCD 19/11 Q1024 NOSIG
NZWN 220300Z AUTO 01011KT 9999 NCD 20/12 Q1025 NOSIG
NZWN 220230Z AUTO 01011KT 9999 NCD 20/12 Q1025 NOSIG
NZWN 220200Z AUTO 01011KT 9999 NCD 20/12 Q1025 NOSIG
NZWN 220130Z AUTO 36011KT 9999 NCD 20/12 Q1026 NOSIG
NZWN 220100Z AUTO 36010KT 9999 NCD 20/12 Q1026 NOSIG
NZWN 220030Z AUTO 01011KT 9999 NCD 20/12 Q1026 NOSIG
NZWN 220000Z AUTO 36010KT 9999 NCD 20/12 Q1026 NOSIG
NZWN 212330Z AUTO 36010KT 320V030 9999 NCD 19/12 Q1026 NOSIG
NZWN 212300Z AUTO 01010KT 9999 NCD 18/11 Q1026 NOSIG
NZWN 212230Z AUTO 01010KT 9999 NCD 18/12 Q1027 NOSIG
NZWN 212200Z AUTO 01011KT 9999 NCD 17/12 Q1027 NOSIG
NZWN 212130Z AUTO 01010KT 9999 NCD 16/11 Q1027 NOSIG
NZWN 212100Z AUTO 01010KT 9999 NCD 16/12 Q1027 NOSIG
NZWN 212030Z AUTO 01011KT 9999 NCD 15/11 Q1027 NOSIG
NZWN 212000Z AUTO 01011KT 9999 NCD 14/11 Q1027 NOSIG
NZWN 211930Z AUTO 01011KT 9999 NCD 14/11 Q1027 NOSIG
NZWN 211900Z AUTO 03009KT 9999 NCD 13/10 Q1027 NOSIG
NZWN 211830Z AUTO 03010KT 9999 NCD 12/09 Q1026 NOSIG
NZWN 211800Z AUTO 02007KT 9999 NCD 11/09 Q1026 NOSIG
NZWN 211730Z AUTO 02006KT 9999 NCD 11/09 Q1026 NOSIG
NZWN 211700Z AUTO 01007KT 9999 NCD 11/09 Q1026 NOSIG
NZWN 211630Z AUTO 02007KT 9999 NCD 11/10 Q1025 NOSIG
NZWN 211600Z AUTO 01008KT 9999 NCD 11/10 Q1025 NOSIG
NZWN 211530Z AUTO 36010KT 9999 NCD 11/10 Q1026 NOSIG
NZWN 211500Z AUTO 01009KT 9999 NCD 11/10 Q1026 NOSIG
NZWN 211430Z AUTO 36009KT 9999 NCD 11/10 Q1026 NOSIG
NZWN 211400Z AUTO 01009KT 9999 NCD 11/10 Q1026 NOSIG